sensor_id;sensor_type;location;lat;lon;timestamp;pressure;altitude;pressure_sealevel;temperature;humidity
82746;BME280;72484;50.004;14.356;2024-02-21T00:00:49;98762.92;;;8.82;68.94
82746;BME280;72484;50.004;14.356;2024-02-21T00:04:27;98759.05;;;8.79;69.44
82746;BME280;72484;50.004;14.356;2024-02-21T00:08:05;98756.25;;;8.82;69.62
82746;BME280;72484;50.004;14.356;2024-02-21T00:11:42;98748.85;;;8.82;69.28
82746;BME280;72484;50.004;14.356;2024-02-21T00:15:20;98738.05;;;8.78;69.47
82746;BME280;72484;50.004;14.356;2024-02-21T00:18:58;98729.98;;;8.77;69.65
82746;BME280;72484;50.004;14.356;2024-02-21T00:22:35;98726.80;;;8.77;70.10
82746;BME280;72484;50.004;14.356;2024-02-21T00:25:56;98723.73;;;8.80;70.17
82746;BME280;72484;50.004;14.356;2024-02-21T00:30:13;98717.60;;;8.84;69.86
82746;BME280;72484;50.004;14.356;2024-02-21T00:33:32;98718.33;;;8.86;69.81
82746;BME280;72484;50.004;14.356;2024-02-21T00:37:47;98713.30;;;8.84;69.74
82746;BME280;72484;50.004;14.356;2024-02-21T00:41:08;98710.48;;;8.76;70.04
82746;BME280;72484;50.004;14.356;2024-02-21T00:45:23;98703.31;;;8.82;69.77
82746;BME280;72484;50.004;14.356;2024-02-21T00:49:01;98702.63;;;8.78;69.34
82746;BME280;72484;50.004;14.356;2024-02-21T00:52:22;98697.02;;;8.75;69.68
82746;BME280;72484;50.004;14.356;2024-02-21T00:56:37;98696.06;;;8.76;69.90
82746;BME280;72484;50.004;14.356;2024-02-21T00:59:57;98693.20;;;8.68;69.61
82746;BME280;72484;50.004;14.356;2024-02-21T01:04:12;98688.02;;;8.68;69.78
82746;BME280;72484;50.004;14.356;2024-02-21T01:07:33;98683.21;;;8.65;69.70
82746;BME280;72484;50.004;14.356;2024-02-21T01:11:31;98679.01;;;8.54;69.55
82746;BME280;72484;50.004;14.356;2024-02-21T01:15:47;98673.65;;;8.51;69.53
82746;BME280;72484;50.004;14.356;2024-02-21T01:19:24;98672.98;;;8.52;70.03
82746;BME280;72484;50.004;14.356;2024-02-21T01:23:02;98664.05;;;8.47;70.35
82746;BME280;72484;50.004;14.356;2024-02-21T01:26:22;98662.13;;;8.47;70.31
82746;BME280;72484;50.004;14.356;2024-02-21T01:30:37;98654.54;;;8.51;70.57
82746;BME280;72484;50.004;14.356;2024-02-21T01:33:58;98655.70;;;8.50;70.22
82746;BME280;72484;50.004;14.356;2024-02-21T01:37:56;98653.48;;;8.49;70.39
82746;BME280;72484;50.004;14.356;2024-02-21T01:42:11;98649.92;;;8.56;70.56
82746;BME280;72484;50.004;14.356;2024-02-21T01:45:51;98647.23;;;8.51;70.57
82746;BME280;72484;50.004;14.356;2024-02-21T01:49:13;98637.92;;;8.49;70.47
82746;BME280;72484;50.004;14.356;2024-02-21T01:53:05;98634.45;;;8.53;70.25
82746;BME280;72484;50.004;14.356;2024-02-21T01:56:42;98632.34;;;8.44;70.53
82746;BME280;72484;50.004;14.356;2024-02-21T02:00:21;98627.38;;;8.42;70.46
82746;BME280;72484;50.004;14.356;2024-02-21T02:03:57;98621.77;;;8.44;70.93
82746;BME280;72484;50.004;14.356;2024-02-21T02:07:18;98617.20;;;8.41;70.69
82746;BME280;72484;50.004;14.356;2024-02-21T02:11:34;98615.11;;;8.46;70.80
82746;BME280;72484;50.004;14.356;2024-02-21T02:15:11;98610.89;;;8.45;70.67
82746;BME280;72484;50.004;14.356;2024-02-21T02:18:32;98612.33;;;8.41;70.84
82746;BME280;72484;50.004;14.356;2024-02-21T02:22:31;98607.36;;;8.38;70.82
82746;BME280;72484;50.004;14.356;2024-02-21T02:26:30;98606.45;;;8.35;70.92
82746;BME280;72484;50.004;14.356;2024-02-21T02:30:28;98600.95;;;8.35;70.92
82746;BME280;72484;50.004;14.356;2024-02-21T02:34:27;98593.11;;;8.36;71.00
82746;BME280;72484;50.004;14.356;2024-02-21T02:38:25;98583.64;;;8.36;71.18
82746;BME280;72484;50.004;14.356;2024-02-21T02:42:41;98578.80;;;8.37;71.29
82746;BME280;72484;50.004;14.356;2024-02-21T02:46:18;98571.73;;;8.38;71.35
82746;BME280;72484;50.004;14.356;2024-02-21T02:49:56;98573.40;;;8.37;71.26
82746;BME280;72484;50.004;14.356;2024-02-21T02:53:17;98568.41;;;8.45;70.90
82746;BME280;72484;50.004;14.356;2024-02-21T02:57:32;98557.09;;;8.50;70.71
82746;BME280;72484;50.004;14.356;2024-02-21T03:01:10;98557.34;;;8.50;70.73
82746;BME280;72484;50.004;14.356;2024-02-21T03:04:47;98546.70;;;8.46;70.70
82746;BME280;72484;50.004;14.356;2024-02-21T03:08:25;98547.40;;;8.38;70.87
82746;BME280;72484;50.004;14.356;2024-02-21T03:11:45;98548.65;;;8.36;70.78
82746;BME280;72484;50.004;14.356;2024-02-21T03:16:01;98546.21;;;8.38;70.82
82746;BME280;72484;50.004;14.356;2024-02-21T03:19:38;98543.11;;;8.39;70.81
82746;BME280;72484;50.004;14.356;2024-02-21T03:22:59;98539.98;;;8.37;70.79
82746;BME280;72484;50.004;14.356;2024-02-21T03:26:57;98537.20;;;8.37;71.15
82746;BME280;72484;50.004;14.356;2024-02-21T03:31:12;98538.00;;;8.37;71.14
82746;BME280;72484;50.004;14.356;2024-02-21T03:34:50;98533.65;;;8.35;71.25
82746;BME280;72484;50.004;14.356;2024-02-21T03:38:28;98532.92;;;8.37;71.15
82746;BME280;72484;50.004;14.356;2024-02-21T03:41:48;98531.45;;;8.35;71.08
82746;BME280;72484;50.004;14.356;2024-02-21T03:45:47;98527.73;;;8.31;71.21
82746;BME280;72484;50.004;14.356;2024-02-21T03:49:45;98531.36;;;8.34;70.94
82746;BME280;72484;50.004;14.356;2024-02-21T03:53:43;98531.73;;;8.33;71.02
82746;BME280;72484;50.004;14.356;2024-02-21T03:57:58;98527.05;;;8.33;71.16
82746;BME280;72484;50.004;14.356;2024-02-21T04:01:19;98524.59;;;8.28;71.37
82746;BME280;72484;50.004;14.356;2024-02-21T04:05:18;98526.61;;;8.24;71.42
82746;BME280;72484;50.004;14.356;2024-02-21T04:09:34;98524.54;;;8.24;71.77
82746;BME280;72484;50.004;14.356;2024-02-21T04:12:55;98520.73;;;8.24;71.56
82746;BME280;72484;50.004;14.356;2024-02-21T04:16:53;98527.82;;;8.19;71.72
82746;BME280;72484;50.004;14.356;2024-02-21T04:21:09;98522.92;;;8.15;71.90
82746;BME280;72484;50.004;14.356;2024-02-21T04:24:29;98522.48;;;8.13;71.97
82746;BME280;72484;50.004;14.356;2024-02-21T04:28:46;98520.26;;;8.19;71.82
82746;BME280;72484;50.004;14.356;2024-02-21T04:32:22;98516.95;;;8.14;71.90
82746;BME280;72484;50.004;14.356;2024-02-21T04:35:43;98511.45;;;8.13;72.11
82746;BME280;72484;50.004;14.356;2024-02-21T04:39:59;98507.73;;;8.15;72.12
82746;BME280;72484;50.004;14.356;2024-02-21T04:43:19;98500.71;;;8.13;72.17
82746;BME280;72484;50.004;14.356;2024-02-21T04:47:17;98499.56;;;8.10;72.30
82746;BME280;72484;50.004;14.356;2024-02-21T04:51:16;98491.63;;;8.10;72.26
82746;BME280;72484;50.004;14.356;2024-02-21T04:55:14;98492.06;;;8.08;72.19
82746;BME280;72484;50.004;14.356;2024-02-21T04:59:12;98491.02;;;8.07;72.25
82746;BME280;72484;50.004;14.356;2024-02-21T05:03:27;98483.98;;;8.04;72.29
82746;BME280;72484;50.004;14.356;2024-02-21T05:06:48;98484.17;;;8.07;72.42
82746;BME280;72484;50.004;14.356;2024-02-21T05:10:46;98481.05;;;8.04;72.43
82746;BME280;72484;50.004;14.356;2024-02-21T05:15:01;98478.60;;;8.02;72.48
82746;BME280;72484;50.004;14.356;2024-02-21T05:18:22;98480.30;;;8.01;72.55
82746;BME280;72484;50.004;14.356;2024-02-21T05:22:37;98476.42;;;8.02;72.51
82746;BME280;72484;50.004;14.356;2024-02-21T05:26:21;98474.90;;;8.07;72.44
82746;BME280;72484;50.004;14.356;2024-02-21T05:29:53;98476.42;;;8.02;72.56
82746;BME280;72484;50.004;14.356;2024-02-21T05:33:13;98469.96;;;8.00;72.65
82746;BME280;72484;50.004;14.356;2024-02-21T05:37:35;98461.66;;;8.05;72.70
82746;BME280;72484;50.004;14.356;2024-02-21T05:40:55;98465.46;;;8.02;72.52
82746;BME280;72484;50.004;14.356;2024-02-21T05:45:12;98466.08;;;8.02;72.40
82746;BME280;72484;50.004;14.356;2024-02-21T05:48:32;98463.45;;;8.01;72.52
82746;BME280;72484;50.004;14.356;2024-02-21T05:52:31;98468.23;;;8.01;72.49
82746;BME280;72484;50.004;14.356;2024-02-21T05:56:47;98465.33;;;8.05;72.61
82746;BME280;72484;50.004;14.356;2024-02-21T06:00:10;98465.45;;;8.09;72.70
82746;BME280;72484;50.004;14.356;2024-02-21T06:04:08;98462.19;;;8.16;72.41
82746;BME280;72484;50.004;14.356;2024-02-21T06:08:23;98459.17;;;8.23;72.24
82746;BME280;72484;50.004;14.356;2024-02-21T06:11:44;98461.35;;;8.25;72.41
82746;BME280;72484;50.004;14.356;2024-02-21T06:15:42;98460.91;;;8.29;72.28
82746;BME280;72484;50.004;14.356;2024-02-21T06:19:57;98460.15;;;8.37;71.64
82746;BME280;72484;50.004;14.356;2024-02-21T06:23:18;98460.84;;;8.42;71.56
82746;BME280;72484;50.004;14.356;2024-02-21T06:27:33;98455.36;;;8.51;71.55
82746;BME280;72484;50.004;14.356;2024-02-21T06:31:11;98454.53;;;8.48;71.17
82746;BME280;72484;50.004;14.356;2024-02-21T06:34:49;98447.79;;;8.50;71.53
82746;BME280;72484;50.004;14.356;2024-02-21T06:38:09;98446.70;;;8.52;71.33
82746;BME280;72484;50.004;14.356;2024-02-21T06:42:26;98448.27;;;8.57;71.54
82746;BME280;72484;50.004;14.356;2024-02-21T06:45:45;98445.23;;;8.58;71.48
82746;BME280;72484;50.004;14.356;2024-02-21T06:49:51;98445.48;;;8.58;71.29
82746;BME280;72484;50.004;14.356;2024-02-21T06:53:49;98446.83;;;8.57;71.61
82746;BME280;72484;50.004;14.356;2024-02-21T06:58:04;98446.87;;;8.62;71.39
82746;BME280;72484;50.004;14.356;2024-02-21T07:01:25;98447.43;;;8.62;71.36
82746;BME280;72484;50.004;14.356;2024-02-21T07:05:23;98447.73;;;8.70;71.55
82746;BME280;72484;50.004;14.356;2024-02-21T07:09:39;98440.88;;;8.68;71.45
82746;BME280;72484;50.004;14.356;2024-02-21T07:13:16;98436.63;;;8.64;71.35
82746;BME280;72484;50.004;14.356;2024-02-21T07:16:37;98436.95;;;8.57;71.41
82746;BME280;72484;50.004;14.356;2024-02-21T07:20:34;98431.83;;;8.52;71.83
82746;BME280;72484;50.004;14.356;2024-02-21T07:24:34;98427.95;;;8.55;71.72
82746;BME280;72484;50.004;14.356;2024-02-21T07:28:32;98423.67;;;8.57;72.12
82746;BME280;72484;50.004;14.356;2024-02-21T07:32:30;98427.39;;;8.55;72.15
82746;BME280;72484;50.004;14.356;2024-02-21T07:36:29;98431.34;;;8.51;72.24
82746;BME280;72484;50.004;14.356;2024-02-21T07:40:28;98433.16;;;8.51;72.61
82746;BME280;72484;50.004;14.356;2024-02-21T07:44:43;98437.88;;;8.45;72.20
82746;BME280;72484;50.004;14.356;2024-02-21T07:48:21;98444.15;;;8.43;72.77
82746;BME280;72484;50.004;14.356;2024-02-21T07:52:00;98445.64;;;8.51;72.83
82746;BME280;72484;50.004;14.356;2024-02-21T07:55:36;98439.41;;;8.56;72.62
82746;BME280;72484;50.004;14.356;2024-02-21T07:59:14;98436.25;;;8.57;72.36
82746;BME280;72484;50.004;14.356;2024-02-21T08:02:52;98431.77;;;8.56;72.51
82746;BME280;72484;50.004;14.356;2024-02-21T08:06:13;98428.52;;;8.56;72.34
82746;BME280;72484;50.004;14.356;2024-02-21T08:10:28;98425.46;;;8.60;72.24
82746;BME280;72484;50.004;14.356;2024-02-21T08:14:06;98419.58;;;8.60;72.56
82746;BME280;72484;50.004;14.356;2024-02-21T08:17:44;98412.80;;;8.61;72.37
82746;BME280;72484;50.004;14.356;2024-02-21T08:21:04;98409.52;;;8.58;72.19
82746;BME280;72484;50.004;14.356;2024-02-21T08:25:03;98411.56;;;8.63;72.38
82746;BME280;72484;50.004;14.356;2024-02-21T08:29:19;98412.66;;;8.70;72.31
82746;BME280;72484;50.004;14.356;2024-02-21T08:32:57;98412.46;;;8.77;72.11
82746;BME280;72484;50.004;14.356;2024-02-21T08:36:20;98404.89;;;8.84;71.95
82746;BME280;72484;50.004;14.356;2024-02-21T08:40:35;98398.48;;;8.90;71.42
82746;BME280;72484;50.004;14.356;2024-02-21T08:43:55;98391.55;;;8.90;71.58
82746;BME280;72484;50.004;14.356;2024-02-21T08:48:11;98390.59;;;8.92;71.89
82746;BME280;72484;50.004;14.356;2024-02-21T08:51:48;98389.64;;;8.89;72.06
82746;BME280;72484;50.004;14.356;2024-02-21T08:55:10;98391.10;;;8.93;72.48
82746;BME280;72484;50.004;14.356;2024-02-21T08:59:25;98396.77;;;8.96;71.60
82746;BME280;72484;50.004;14.356;2024-02-21T09:03:03;98393.95;;;9.02;71.52
82746;BME280;72484;50.004;14.356;2024-02-21T09:06:41;98397.02;;;9.08;71.08
82746;BME280;72484;50.004;14.356;2024-02-21T09:10:18;98407.33;;;9.10;71.22
82746;BME280;72484;50.004;14.356;2024-02-21T09:13:38;98411.40;;;9.15;70.99
82746;BME280;72484;50.004;14.356;2024-02-21T09:17:36;98408.44;;;9.14;70.59
82746;BME280;72484;50.004;14.356;2024-02-21T09:21:53;98402.42;;;9.21;70.39
82746;BME280;72484;50.004;14.356;2024-02-21T09:25:31;98390.70;;;9.22;70.52
82746;BME280;72484;50.004;14.356;2024-02-21T09:28:51;98387.17;;;9.25;69.94
82746;BME280;72484;50.004;14.356;2024-02-21T09:33:06;98372.17;;;9.36;70.30
82746;BME280;72484;50.004;14.356;2024-02-21T09:36:44;98357.70;;;9.42;69.72
82746;BME280;72484;50.004;14.356;2024-02-21T09:40:08;98362.48;;;9.58;69.49
82746;BME280;72484;50.004;14.356;2024-02-21T09:44:25;98356.86;;;9.71;68.73
82746;BME280;72484;50.004;14.356;2024-02-21T09:48:19;98346.39;;;9.84;67.98
82746;BME280;72484;50.004;14.356;2024-02-21T09:51:40;98335.84;;;10.03;67.92
82746;BME280;72484;50.004;14.356;2024-02-21T09:55:01;98328.76;;;10.14;67.02
82746;BME280;72484;50.004;14.356;2024-02-21T09:58:59;98315.89;;;10.20;65.90
82746;BME280;72484;50.004;14.356;2024-02-21T10:03:01;98310.61;;;10.32;65.79
82746;BME280;72484;50.004;14.356;2024-02-21T10:07:02;98311.49;;;10.37;65.95
82746;BME280;72484;50.004;14.356;2024-02-21T10:11:23;98314.69;;;10.39;64.30
82746;BME280;72484;50.004;14.356;2024-02-21T10:14:38;98318.20;;;10.33;64.63
82746;BME280;72484;50.004;14.356;2024-02-21T10:18:37;98311.80;;;10.42;64.64
82746;BME280;72484;50.004;14.356;2024-02-21T10:23:01;98313.64;;;10.51;63.96
82746;BME280;72484;50.004;14.356;2024-02-21T10:26:13;98318.75;;;10.50;63.99
82746;BME280;72484;50.004;14.356;2024-02-21T10:30:29;98314.98;;;10.46;63.66
82746;BME280;72484;50.004;14.356;2024-02-21T10:34:07;98316.20;;;10.44;63.40
82746;BME280;72484;50.004;14.356;2024-02-21T10:37:27;98310.54;;;10.46;63.29
82746;BME280;72484;50.004;14.356;2024-02-21T10:41:44;98310.13;;;10.44;62.97
82746;BME280;72484;50.004;14.356;2024-02-21T10:45:21;98301.67;;;10.40;62.91
82746;BME280;72484;50.004;14.356;2024-02-21T10:49:03;98296.73;;;10.40;62.61
82746;BME280;72484;50.004;14.356;2024-02-21T10:52:44;98292.48;;;10.48;62.16
82746;BME280;72484;50.004;14.356;2024-02-21T10:56:21;98289.95;;;10.54;61.95
82746;BME280;72484;50.004;14.356;2024-02-21T10:59:51;98291.84;;;10.66;60.82
82746;BME280;72484;50.004;14.356;2024-02-21T11:03:29;98293.74;;;10.74;60.87
82746;BME280;72484;50.004;14.356;2024-02-21T11:07:07;98285.52;;;10.80;60.65
82746;BME280;72484;50.004;14.356;2024-02-21T11:10:28;98282.85;;;10.94;61.05
82746;BME280;72484;50.004;14.356;2024-02-21T11:14:43;98286.02;;;11.05;60.80
82746;BME280;72484;50.004;14.356;2024-02-21T11:18:04;98290.87;;;11.12;60.64
82746;BME280;72484;50.004;14.356;2024-02-21T11:22:20;98292.27;;;11.20;60.77
82746;BME280;72484;50.004;14.356;2024-02-21T11:25:40;98285.80;;;11.24;60.81
82746;BME280;72484;50.004;14.356;2024-02-21T11:29:44;98283.83;;;11.33;60.90
82746;BME280;72484;50.004;14.356;2024-02-21T11:34:00;98279.31;;;11.44;60.53
82746;BME280;72484;50.004;14.356;2024-02-21T11:37:20;98268.58;;;11.51;60.42
82746;BME280;72484;50.004;14.356;2024-02-21T11:41:18;98258.22;;;11.60;60.49
82746;BME280;72484;50.004;14.356;2024-02-21T11:45:17;98253.48;;;11.63;59.65
82746;BME280;72484;50.004;14.356;2024-02-21T11:49:38;98246.77;;;11.63;60.30
82746;BME280;72484;50.004;14.356;2024-02-21T11:52:57;98244.75;;;11.68;59.92
82746;BME280;72484;50.004;14.356;2024-02-21T11:57:12;98244.89;;;11.74;60.16
82746;BME280;72484;50.004;14.356;2024-02-21T12:00:33;98231.17;;;11.81;60.12
82746;BME280;72484;50.004;14.356;2024-02-21T12:04:48;98219.07;;;11.84;59.75
82746;BME280;72484;50.004;14.356;2024-02-21T12:08:09;98210.16;;;11.89;59.93
82746;BME280;72484;50.004;14.356;2024-02-21T12:12:08;98207.94;;;11.87;59.26
82746;BME280;72484;50.004;14.356;2024-02-21T12:16:23;98203.60;;;11.88;59.23
82746;BME280;72484;50.004;14.356;2024-02-21T12:20:01;98194.66;;;11.89;59.66
82746;BME280;72484;50.004;14.356;2024-02-21T12:23:39;98191.30;;;11.96;59.38
82746;BME280;72484;50.004;14.356;2024-02-21T12:27:16;98199.34;;;12.02;59.19
82746;BME280;72484;50.004;14.356;2024-02-21T12:30:54;98188.31;;;12.01;58.10
82746;BME280;72484;50.004;14.356;2024-02-21T12:34:16;98184.48;;;12.00;57.97
82746;BME280;72484;50.004;14.356;2024-02-21T12:38:14;98173.06;;;11.98;57.95
82746;BME280;72484;50.004;14.356;2024-02-21T12:42:29;98162.92;;;11.97;58.24
82746;BME280;72484;50.004;14.356;2024-02-21T12:45:50;98150.37;;;11.96;58.21
82746;BME280;72484;50.004;14.356;2024-02-21T12:49:48;98142.73;;;11.99;58.24
82746;BME280;72484;50.004;14.356;2024-02-21T12:54:03;98138.98;;;12.06;58.59
82746;BME280;72484;50.004;14.356;2024-02-21T12:57:23;98131.98;;;12.12;58.03
82746;BME280;72484;50.004;14.356;2024-02-21T13:01:21;98118.83;;;12.14;57.84
82746;BME280;72484;50.004;14.356;2024-02-21T13:05:19;98105.77;;;12.14;57.52
82746;BME280;72484;50.004;14.356;2024-02-21T13:09:35;98098.23;;;12.17;57.88
82746;BME280;72484;50.004;14.356;2024-02-21T13:13:13;98096.73;;;12.22;57.63
82746;BME280;72484;50.004;14.356;2024-02-21T13:16:51;98081.77;;;12.22;57.00
82746;BME280;72484;50.004;14.356;2024-02-21T13:20:13;98088.17;;;12.22;57.04
82746;BME280;72484;50.004;14.356;2024-02-21T13:24:11;98085.16;;;12.21;56.50
82746;BME280;72484;50.004;14.356;2024-02-21T13:28:09;98081.23;;;12.14;56.58
82746;BME280;72484;50.004;14.356;2024-02-21T13:32:24;98076.14;;;12.11;56.89
82746;BME280;72484;50.004;14.356;2024-02-21T13:36:02;98069.98;;;12.09;57.39
82746;BME280;72484;50.004;14.356;2024-02-21T13:39:23;98062.61;;;12.19;57.64
82746;BME280;72484;50.004;14.356;2024-02-21T13:43:38;98058.89;;;12.29;57.74
82746;BME280;72484;50.004;14.356;2024-02-21T13:47:16;98056.73;;;12.36;57.59
82746;BME280;72484;50.004;14.356;2024-02-21T13:50:36;98051.40;;;12.40;57.62
82746;BME280;72484;50.004;14.356;2024-02-21T13:54:56;98044.55;;;12.44;57.63
82746;BME280;72484;50.004;14.356;2024-02-21T13:58:17;98041.98;;;12.44;57.30
82746;BME280;72484;50.004;14.356;2024-02-21T14:02:15;98045.88;;;12.40;57.13
82746;BME280;72484;50.004;14.356;2024-02-21T14:06:13;98034.55;;;12.38;57.43
82746;BME280;72484;50.004;14.356;2024-02-21T14:10:29;98027.39;;;12.40;57.61
82746;BME280;72484;50.004;14.356;2024-02-21T14:14:09;98022.13;;;12.45;57.65
82746;BME280;72484;50.004;14.356;2024-02-21T14:17:27;98019.09;;;12.45;57.39
82746;BME280;72484;50.004;14.356;2024-02-21T14:21:42;98008.64;;;12.48;57.49
82746;BME280;72484;50.004;14.356;2024-02-21T14:25:03;98008.94;;;12.50;57.34
82746;BME280;72484;50.004;14.356;2024-02-21T14:29:19;97998.39;;;12.54;57.34
82746;BME280;72484;50.004;14.356;2024-02-21T14:32:43;97993.46;;;12.58;57.66
82746;BME280;72484;50.004;14.356;2024-02-21T14:36:59;97984.38;;;12.54;57.13
82746;BME280;72484;50.004;14.356;2024-02-21T14:40:37;97977.16;;;12.49;56.59
82746;BME280;72484;50.004;14.356;2024-02-21T14:44:14;97970.09;;;12.46;56.58
82746;BME280;72484;50.004;14.356;2024-02-21T14:47:52;97962.33;;;12.47;56.61
82746;BME280;72484;50.004;14.356;2024-02-21T14:51:30;97961.36;;;12.47;56.35
82746;BME280;72484;50.004;14.356;2024-02-21T14:55:08;97957.19;;;12.41;56.39
82746;BME280;72484;50.004;14.356;2024-02-21T14:58:28;97956.70;;;12.35;56.03
82746;BME280;72484;50.004;14.356;2024-02-21T15:02:45;97952.14;;;12.30;55.54
82746;BME280;72484;50.004;14.356;2024-02-21T15:06:22;97943.60;;;12.28;55.74
82746;BME280;72484;50.004;14.356;2024-02-21T15:10:02;97935.53;;;12.26;55.85
82746;BME280;72484;50.004;14.356;2024-02-21T15:13:39;97940.29;;;12.24;55.67
82746;BME280;72484;50.004;14.356;2024-02-21T15:17:16;97941.51;;;12.17;55.41
82746;BME280;72484;50.004;14.356;2024-02-21T15:20:53;97941.14;;;12.14;55.75
82746;BME280;72484;50.004;14.356;2024-02-21T15:24:14;97936.65;;;12.14;55.88
82746;BME280;72484;50.004;14.356;2024-02-21T15:28:13;97939.39;;;12.13;55.57
82746;BME280;72484;50.004;14.356;2024-02-21T15:32:11;97938.20;;;12.11;55.59
82746;BME280;72484;50.004;14.356;2024-02-21T15:36:26;97943.45;;;12.14;55.77
82746;BME280;72484;50.004;14.356;2024-02-21T15:40:06;97942.41;;;12.15;55.85
82746;BME280;72484;50.004;14.356;2024-02-21T15:43:25;97937.63;;;12.13;55.60
82746;BME280;72484;50.004;14.356;2024-02-21T15:47:41;97939.50;;;12.10;55.55
82746;BME280;72484;50.004;14.356;2024-02-21T15:51:01;97932.83;;;12.08;55.31
82746;BME280;72484;50.004;14.356;2024-02-21T15:55:18;97932.32;;;12.03;55.61
82746;BME280;72484;50.004;14.356;2024-02-21T15:58:55;97923.21;;;12.02;55.57
82746;BME280;72484;50.004;14.356;2024-02-21T16:02:33;97916.35;;;12.07;56.23
82746;BME280;72484;50.004;14.356;2024-02-21T16:05:53;97917.67;;;12.10;56.44
82746;BME280;72484;50.004;14.356;2024-02-21T16:09:51;97917.80;;;12.12;56.56
82746;BME280;72484;50.004;14.356;2024-02-21T16:14:07;97920.13;;;12.12;56.47
82746;BME280;72484;50.004;14.356;2024-02-21T16:17:27;97912.86;;;12.10;56.92
82746;BME280;72484;50.004;14.356;2024-02-21T16:21:42;97904.15;;;12.05;57.29
82746;BME280;72484;50.004;14.356;2024-02-21T16:25:03;97901.92;;;12.03;57.03
82746;BME280;72484;50.004;14.356;2024-02-21T16:29:02;97892.80;;;11.97;56.85
82746;BME280;72484;50.004;14.356;2024-02-21T16:33:18;97880.92;;;11.87;56.89
82746;BME280;72484;50.004;14.356;2024-02-21T16:36:56;97876.51;;;11.77;57.33
82746;BME280;72484;50.004;14.356;2024-02-21T16:40:16;97873.22;;;11.68;57.58
82746;BME280;72484;50.004;14.356;2024-02-21T16:44:15;97874.84;;;11.62;57.38
82746;BME280;72484;50.004;14.356;2024-02-21T16:48:13;97872.34;;;11.56;57.65
82746;BME280;72484;50.004;14.356;2024-02-21T16:52:29;97870.30;;;11.44;57.75
82746;BME280;72484;50.004;14.356;2024-02-21T16:56:07;97865.60;;;11.36;57.82
82746;BME280;72484;50.004;14.356;2024-02-21T16:59:27;97868.13;;;11.23;57.80
82746;BME280;72484;50.004;14.356;2024-02-21T17:03:25;97865.83;;;11.16;57.95
82746;BME280;72484;50.004;14.356;2024-02-21T17:07:25;97858.78;;;11.16;58.15
82746;BME280;72484;50.004;14.356;2024-02-21T17:11:40;97850.92;;;11.12;58.33
82746;BME280;72484;50.004;14.356;2024-02-21T17:15:01;97851.44;;;11.08;58.16
82746;BME280;72484;50.004;14.356;2024-02-21T17:18:59;97847.33;;;11.05;58.14
82746;BME280;72484;50.004;14.356;2024-02-21T17:23:14;97845.70;;;10.98;58.19
82746;BME280;72484;50.004;14.356;2024-02-21T17:26:52;97838.04;;;10.98;58.09
82746;BME280;72484;50.004;14.356;2024-02-21T17:30:15;97829.80;;;11.00;58.24
82746;BME280;72484;50.004;14.356;2024-02-21T17:34:13;97820.70;;;10.91;58.14
82746;BME280;72484;50.004;14.356;2024-02-21T17:38:11;97818.77;;;10.85;58.13
82746;BME280;72484;50.004;14.356;2024-02-21T17:42:09;97823.63;;;10.85;58.06
82746;BME280;72484;50.004;14.356;2024-02-21T17:46:07;97820.71;;;10.82;57.88
82746;BME280;72484;50.004;14.356;2024-02-21T17:50:22;97819.14;;;10.72;58.02
82746;BME280;72484;50.004;14.356;2024-02-21T17:53:43;97817.43;;;10.66;58.10
82746;BME280;72484;50.004;14.356;2024-02-21T17:57:41;97813.34;;;10.60;58.13
82746;BME280;72484;50.004;14.356;2024-02-21T18:01:56;97809.70;;;10.64;57.39
82746;BME280;72484;50.004;14.356;2024-02-21T18:05:34;97800.88;;;10.62;56.83
82746;BME280;72484;50.004;14.356;2024-02-21T18:09:12;97808.14;;;10.61;56.42
82746;BME280;72484;50.004;14.356;2024-02-21T18:12:50;97806.23;;;10.51;56.15
82746;BME280;72484;50.004;14.356;2024-02-21T18:16:27;97803.93;;;10.49;55.94
82746;BME280;72484;50.004;14.356;2024-02-21T18:20:07;97801.80;;;10.47;56.10
82746;BME280;72484;50.004;14.356;2024-02-21T18:23:43;97801.54;;;10.40;54.93
82746;BME280;72484;50.004;14.356;2024-02-21T18:27:20;97797.16;;;10.38;55.21
82746;BME280;72484;50.004;14.356;2024-02-21T18:30:41;97790.14;;;10.34;54.49
82746;BME280;72484;50.004;14.356;2024-02-21T18:34:56;97781.09;;;10.33;54.31
82746;BME280;72484;50.004;14.356;2024-02-21T18:38:17;97775.20;;;10.31;54.04
82746;BME280;72484;50.004;14.356;2024-02-21T18:42:15;97765.66;;;10.28;53.29
82746;BME280;72484;50.004;14.356;2024-02-21T18:46:13;97753.07;;;10.26;52.78
82746;BME280;72484;50.004;14.356;2024-02-21T18:50:12;97746.47;;;10.25;52.65
82746;BME280;72484;50.004;14.356;2024-02-21T18:54:27;97749.72;;;10.27;52.27
82746;BME280;72484;50.004;14.356;2024-02-21T18:58:05;97753.83;;;10.22;51.74
82746;BME280;72484;50.004;14.356;2024-02-21T19:01:26;97747.16;;;10.18;51.64
82746;BME280;72484;50.004;14.356;2024-02-21T19:05:41;97746.36;;;10.19;51.24
82746;BME280;72484;50.004;14.356;2024-02-21T19:09:18;97746.11;;;10.19;51.29
82746;BME280;72484;50.004;14.356;2024-02-21T19:12:39;97735.61;;;10.13;51.13
82746;BME280;72484;50.004;14.356;2024-02-21T19:16:55;97732.75;;;10.13;51.28
82746;BME280;72484;50.004;14.356;2024-02-21T19:20:15;97720.56;;;10.10;51.03
82746;BME280;72484;50.004;14.356;2024-02-21T19:24:30;97715.80;;;10.08;51.45
82746;BME280;72484;50.004;14.356;2024-02-21T19:28:08;97704.07;;;10.08;51.34
82746;BME280;72484;50.004;14.356;2024-02-21T19:31:45;97696.34;;;10.10;51.02
82746;BME280;72484;50.004;14.356;2024-02-21T19:35:23;97691.44;;;10.12;51.36
82746;BME280;72484;50.004;14.356;2024-02-21T19:39:01;97693.83;;;10.12;51.95
82746;BME280;72484;50.004;14.356;2024-02-21T19:42:21;97690.61;;;9.88;55.11
82746;BME280;72484;50.004;14.356;2024-02-21T19:46:19;97685.03;;;9.68;56.56
82746;BME280;72484;50.004;14.356;2024-02-21T19:50:34;97694.38;;;9.63;56.70
82746;BME280;72484;50.004;14.356;2024-02-21T19:53:55;97679.38;;;9.55;56.07